KMGJ/MGJ METAR and TAF weather

Enter ICAO airport designator
Station Type Date Time Source
KMGJ METAR 2019/12/07 14:54 UTC NOAA

KMGJ 071454Z AUTO 29009KT 10SM OVC046 M01/M08 A3034 RMK AO2 SLP279 T10111078 51020


Station Type Date Time Source
KMGJ Decoded METAR 2019/12/07 14:54 UTC NOAA

MONTGOMERY ORANGE CO AIRPORT, NY, United States (KMGJ) 41-31N 074-16W 108M
Dec 07, 2019 - 09:54 AM EST / 2019.12.07 1454 UTC
Wind: from the WNW (290 degrees) at 10 MPH (9 KT):0
Visibility: 10 mile(s):0
Sky conditions: overcast
Temperature: 30.0 F (-1.1 C)
Windchill: 21 F (-6 C):1
Dew Point: 18.0 F (-7.8 C)
Relative Humidity: 60%
Pressure (altimeter): 30.34 in. Hg (1027 hPa)
Pressure tendency: 0.06 inches (2.0 hPa) higher than three hours ago
ob: KMGJ 071454Z AUTO 29009KT 10SM OVC046 M01/M08 A3034 RMK AO2 SLP279 T10111078 51020
cycle: 15

Station Type Date Time Source
KMGJ TAF UTC NOAA

Error!

Example: see airport list